« 熱上海 富山空港 2016/8/16 tue | トップページ | 趣味的航空路誌改訂情報 2016/8/18 thu »

2016/08/17

お出迎え 千歳飛行場 2016/7/23 sat

札幌航空ページェント行きの続きです。新千歳空港で一泊して、ターミナル開門と同時に行動開始。

RJCC 222100Z 18010KT 9999 FEW010 BKN015 16/15 Q1018 RMK 1ST010 7ST015 A3007

20160723_rjcc_00rjcc

一応、ドラえもんを拝みに

RJCC 222130Z 17010KT 9999 FEW008 SCT010 BKN015 16/15 Q1018 RMK 1ST008 3ST010 7ST015 A3008

20160723_rjcc_01b701sq

朝の散歩がてら、日の丸を拝みに まだ、早いか・・

20160723_rjcc_02b701sq

今朝は、中にいらっしゃいます

20160723_rjcc_03la435

千歳基地エプロンには、昨日上空から見たポセイドン。

20160723_rjcc_04u753252

飛行展示用のU-4かな

20160723_rjcc_05f16x2

ちょこんとF-16が並んでいました。

RJCC 222230Z 18009KT 9999 FEW008 BKN010 BKN015 17/15 Q1018 RMK 1ST008 5ST010 7ST015 A3008

20160723_rjcc_06ja15jj

JJP103 RJAA-RJCC JA15JJ A320-232

20160723_rjcc_07ja706a

ANA50 RJCC-RJTT JA706A B777-281

それぞれ始発便が動きだしました。

20160723_rjcc_08ja75an

ANA987 RJTT-RJCC JA75AN B737-881

RJCC 222300Z 19008KT 9999 FEW010 SCT012 BKN017 17/15 Q1018 RMK 1ST010 4ST012 7ST017 A3008

20160723_rjcc_09ja337j

JAL501 RJTT-RJCC JA337J B737-846

20160723_rjcc_10bi12

PARで2機づつ進入の模様です。

20160723_rjcc_11bi12

20160723_rjcc_12bi12

#1 725 #2 728 T-4 11SQ

20160723_rjcc_13bi34

つづいて、#3,#4

20160723_rjcc_14bi34

#3 787 #4 729 T-4 11SQ

20160723_rjcc_15bi12

20160723_rjcc_16x9mxxs

XAX550 WMKK-RJCC 9M-XXS A330-343

20160723_rjcc_17ja03va

VNL901 RJAA-RJCC JA03VA A320-216

20160723_rjcc_18ja73nq

SKY703 RJTT-RJCC JA73NQ B737-81D

20160723_rjcc_19bi1234

最初の編隊の4機

20160723_rjcc_20ja98ad

ADO11 RJTT-RJCC JA98AD B767-33AER

20160723_rjcc_21ja723a

JA723A DHC8-315 JCG 海保さんも始動

RJCC 222330Z 18008KT 150V230 9999 FEW010 BKN014 BKN017 18/15 Q1018 RMK 1ST010 5ST014 7ST017 A3008

20160723_rjcc_22bi56

後続編隊は、出発時トラブルで2機での到着

20160723_rjcc_23bi56

#5 730 予 731 T-4 11SQ

20160723_rjcc_24hstgp

THA670 VTBS-RJCC HS-TGP B747-4D7

20160723_rjcc_25ja755a

ANA51 RJTT-RJCC JA755A B777-381

ここまで到着の国内線は、全て首都圏から 需要旺盛やね

20160723_rjcc_26bi123456

6機のライン。もう一機は後で来るとのことでしたが、確認はしておりません。

20160723_rjcc_27minamichitose

さて、お出迎えも終わったので千歳を後に丘珠へ転進です。

RJCC 230000Z 18009KT 9999 FEW010 BKN014 BKN018 18/16 Q1018 RMK 1ST010 6ST014 7ST018 A3008

#1 46-5726
#2 46-5728
#3 06-5787
#4 46-5729
#5 46-5730
#6 26-5805
予 46-5731

|

« 熱上海 富山空港 2016/8/16 tue | トップページ | 趣味的航空路誌改訂情報 2016/8/18 thu »

BI」カテゴリの記事

千歳飛行場」カテゴリの記事

コメント

コメントを書く



(ウェブ上には掲載しません)


コメントは記事投稿者が公開するまで表示されません。



トラックバック


この記事へのトラックバック一覧です: お出迎え 千歳飛行場 2016/7/23 sat:

« 熱上海 富山空港 2016/8/16 tue | トップページ | 趣味的航空路誌改訂情報 2016/8/18 thu »